Time;durP1;ratioP1;P1;durP2;ratioP2;P2;SDS_P1;SDS_P2;PMS_P1;PMS_P2;Temp;Humidity;BMP_temperature;BMP_pressure;BME280_temperature;BME280_humidity;BME280_pressure;Samples;Min_cycle;Max_cycle;Signal;HPM_P1;HPM_P2
2021/03/05 17:05:11;;;;;;;59.03;26.08;;;1.30;90.80;;;;;;5076574;28;20409;-95
2021/03/05 17:07:38;;;;;;;54.30;22.45;;;1.20;91.70;;;;;;5074977;28;20031;-95
2021/03/05 17:10:05;;;;;;;48.70;23.33;;;1.30;92.20;;;;;;5074201;28;20020;-96
2021/03/05 17:12:31;;;;;;;53.58;21.92;;;1.40;92.60;;;;;;5075064;28;20024;-95
2021/03/05 17:14:56;;;;;;;48.53;24.05;;;1.50;92.80;;;;;;5075137;28;20055;-94
2021/03/05 17:17:23;;;;;;;58.67;27.65;;;1.60;93.10;;;;;;5067851;28;20407;-95
2021/03/05 17:19:49;;;;;;;55.95;25.92;;;1.70;93.20;;;;;;5061820;28;20120;-95
2021/03/05 17:22:14;;;;;;;59.55;27.40;;;1.80;93.20;;;;;;5061885;28;20056;-96
2021/03/05 17:24:40;;;;;;;61.78;28.77;;;1.90;93.30;;;;;;5065712;28;20033;-96
2021/03/05 17:27:07;;;;;;;62.80;28.88;;;2.00;93.20;;;;;;5073436;28;20027;-96
2021/03/05 17:29:32;;;;;;;58.92;28.15;;;2.10;93.20;;;;;;5070566;28;20024;-94
2021/03/05 17:31:58;;;;;;;55.90;26.33;;;2.10;93.20;;;;;;5055738;28;20404;-95
2021/03/05 17:34:25;;;;;;;57.00;28.48;;;2.20;93.20;;;;;;5064099;28;20078;-95
2021/03/05 17:36:51;;;;;;;67.60;31.70;;;2.30;93.20;;;;;;5066688;28;20048;-94
2021/03/05 17:39:17;;;;;;;69.60;31.75;;;2.40;93.10;;;;;;5055169;28;20083;-94
2021/03/05 17:41:42;;;;;;;61.65;28.50;;;2.40;92.90;;;;;;5065890;28;20021;-95
2021/03/05 17:44:09;;;;;;;55.80;26.70;;;2.50;92.90;;;;;;5058654;28;20078;-94
2021/03/05 17:46:35;;;;;;;62.30;26.67;;;2.50;92.90;;;;;;5067703;28;20020;-95
2021/03/05 17:49:01;;;;;;;57.70;26.85;;;2.50;92.80;;;;;;5072756;28;20016;-94
2021/03/05 17:51:27;;;;;;;58.20;26.33;;;2.60;92.80;;;;;;5074681;28;20032;-94
2021/03/05 17:53:56;;;;;;;58.35;26.80;;;2.60;92.70;;;;;;5059636;28;20112;-94
2021/03/05 17:56:22;;;;;;;51.85;24.80;;;2.60;92.60;;;;;;5058125;28;20029;-95
2021/03/05 17:58:47;;;;;;;50.00;24.85;;;2.60;92.50;;;;;;5076014;28;20035;-95
2021/03/05 18:01:13;;;;;;;51.67;23.55;;;2.60;92.40;;;;;;5074819;28;20024;-96
2021/03/05 18:03:39;;;;;;;55.25;24.92;;;2.60;92.40;;;;;;5075418;28;20044;-95
2021/03/05 18:06:04;;;;;;;47.45;22.70;;;2.70;92.40;;;;;;5073458;28;20021;-96
2021/03/05 18:08:30;;;;;;;49.78;24.33;;;2.70;92.40;;;;;;5072973;28;20046;-95
2021/03/05 18:10:59;;;;;;;48.03;23.83;;;2.70;92.30;;;;;;5060274;28;20040;-94
2021/03/05 18:13:24;;;;;;;51.13;24.13;;;2.70;92.30;;;;;;5054793;28;20078;-94
2021/03/05 18:15:50;;;;;;;46.42;22.77;;;2.70;92.20;;;;;;5058609;28;20028;-95
2021/03/05 18:18:17;;;;;;;51.38;23.83;;;2.70;92.30;;;;;;5061450;28;20375;-95
2021/03/05 18:20:43;;;;;;;46.72;24.17;;;2.70;92.20;;;;;;5055302;28;20016;-95
2021/03/05 18:23:08;;;;;;;53.42;25.40;;;2.60;92.10;;;;;;5042225;28;20132;-94
2021/03/05 18:25:34;;;;;;;51.65;24.15;;;2.60;92.10;;;;;;5042165;28;20025;-94
2021/03/05 18:28:00;;;;;;;58.50;25.65;;;2.60;92.20;;;;;;5045267;28;20051;-94
2021/03/05 18:30:26;;;;;;;63.65;28.80;;;2.60;92.20;;;;;;5057421;28;20046;-96
2021/03/05 18:32:52;;;;;;;68.85;30.95;;;2.60;92.20;;;;;;5058749;28;20066;-95
2021/03/05 18:35:18;;;;;;;80.15;34.05;;;2.60;92.10;;;;;;5060124;28;20024;-94
2021/03/05 18:37:44;;;;;;;74.55;32.70;;;2.60;92.10;;;;;;5079309;28;20146;-92
2021/03/05 18:40:11;;;;;;;74.18;32.80;;;2.60;92.10;;;;;;5060122;28;20025;-92
2021/03/05 18:42:38;;;;;;;81.63;33.88;;;2.50;92.40;;;;;;5059583;28;20427;-95
2021/03/05 18:45:06;;;;;;;72.03;31.40;;;2.50;92.00;;;;;;5059524;28;20025;-96
2021/03/05 18:47:32;;;;;;;67.88;31.67;;;2.60;92.10;;;;;;5060239;28;20043;-94
2021/03/05 18:49:58;;;;;;;67.93;32.10;;;2.50;92.20;;;;;;5060759;28;20020;-94
2021/03/05 18:52:25;;;;;;;71.57;32.55;;;2.50;92.20;;;;;;5057344;28;20021;-96
2021/03/05 18:54:50;;;;;;;65.40;31.38;;;2.50;92.10;;;;;;5073284;28;20032;-95
2021/03/05 18:57:16;;;;;;;67.47;31.30;;;2.50;92.00;;;;;;5079132;28;20461;-95
2021/03/05 18:59:42;;;;;;;60.55;27.88;;;2.50;91.90;;;;;;5060379;28;20025;-92
2021/03/05 19:02:07;;;;;;;50.22;25.58;;;2.50;91.90;;;;;;5054105;28;20071;-94
2021/03/05 19:04:34;;;;;;;56.53;27.58;;;2.50;92.00;;;;;;5047667;28;20048;-93
2021/03/05 19:07:00;;;;;;;64.15;31.48;;;2.50;92.00;;;;;;5049367;28;20044;-93
2021/03/05 19:09:26;;;;;;;64.40;28.95;;;2.50;92.00;;;;;;5050308;28;20377;-93
2021/03/05 19:11:52;;;;;;;48.67;22.75;;;2.40;91.80;;;;;;5047472;28;20484;-92
2021/03/05 19:14:17;;;;;;;33.47;15.77;;;2.40;91.40;;;;;;5049583;28;20111;-93
2021/03/05 19:16:43;;;;;;;22.42;10.43;;;2.40;90.30;;;;;;5051844;28;20117;-91
2021/03/05 19:19:09;;;;;;;17.65;9.32;;;2.30;87.70;;;;;;5055460;28;20088;-90
2021/03/05 19:21:35;;;;;;;23.85;10.73;;;2.30;87.70;;;;;;5050469;28;20024;-92
2021/03/05 19:24:02;;;;;;;25.70;12.38;;;2.20;87.90;;;;;;5065602;28;20032;-92
2021/03/05 19:26:28;;;;;;;25.75;12.45;;;2.20;86.20;;;;;;5067360;28;20539;-91
2021/03/05 19:28:56;;;;;;;25.38;11.75;;;2.10;86.20;;;;;;5051701;28;20021;-92
2021/03/05 19:31:22;;;;;;;26.02;11.98;;;2.10;86.10;;;;;;5049204;28;20116;-92
2021/03/05 19:33:48;;;;;;;22.83;11.57;;;2.10;87.60;;;;;;5065843;28;20100;-92
2021/03/05 19:36:13;;;;;;;21.60;11.20;;;2.00;87.20;;;;;;5045750;28;20025;-91
2021/03/05 19:38:39;;;;;;;24.70;12.45;;;2.00;87.20;;;;;;5044475;28;20032;-90
2021/03/05 19:41:05;;;;;;;21.20;10.65;;;2.00;87.60;;;;;;5052974;28;20036;-90
2021/03/05 19:43:31;;;;;;;22.08;10.63;;;2.00;87.50;;;;;;5045644;28;20108;-92
2021/03/05 19:45:57;;;;;;;19.35;9.73;;;1.90;87.20;;;;;;5038535;28;20057;-91
2021/03/05 19:48:23;;;;;;;17.83;9.57;;;1.90;87.20;;;;;;5037067;28;20040;-92
